createdAt,value
2023-02-09T00:00:06.497Z,-11.80
2023-02-09T00:02:42.316Z,-11.81
2023-02-09T00:05:11.437Z,-11.83
2023-02-09T00:07:41.048Z,-11.84
2023-02-09T00:10:10.123Z,-11.86
2023-02-09T00:12:57.622Z,-11.88
2023-02-09T00:15:26.356Z,-11.90
2023-02-09T00:17:54.898Z,-11.92
2023-02-09T00:20:24.019Z,-11.93
2023-02-09T00:22:52.967Z,-11.95
2023-02-09T00:25:22.608Z,-11.96
2023-02-09T00:27:51.019Z,-11.98
2023-02-09T00:30:20.036Z,-11.99
2023-02-09T00:32:49.006Z,-12.00
2023-02-09T00:35:18.136Z,-12.02
2023-02-09T00:37:47.796Z,-12.03
2023-02-09T00:40:16.957Z,-12.04
2023-02-09T00:42:45.567Z,-12.05
2023-02-09T00:45:14.562Z,-12.07
2023-02-09T00:47:43.686Z,-12.08
2023-02-09T00:50:12.558Z,-12.10
2023-02-09T00:52:41.456Z,-12.12
2023-02-09T00:55:10.652Z,-12.13
2023-02-09T00:57:41.537Z,-12.15
2023-02-09T01:00:11.704Z,-12.17
2023-02-09T01:02:40.629Z,-12.19
2023-02-09T01:05:09.424Z,-12.20
2023-02-09T01:07:37.990Z,-12.21
2023-02-09T01:10:07.258Z,-12.23
2023-02-09T01:12:36.571Z,-12.26
2023-02-09T01:15:07.170Z,-12.27
2023-02-09T01:17:39.230Z,-12.30
2023-02-09T01:20:09.062Z,-12.31
2023-02-09T01:22:37.990Z,-12.32
2023-02-09T01:25:07.376Z,-12.33
2023-02-09T01:27:37.832Z,-12.34
2023-02-09T01:30:07.066Z,-12.34
2023-02-09T01:32:37.106Z,-12.36
2023-02-09T01:35:06.204Z,-12.36
2023-02-09T01:37:35.521Z,-12.36
2023-02-09T01:40:04.773Z,-12.37
2023-02-09T01:42:34.132Z,-12.38
2023-02-09T01:45:15.949Z,-12.39
2023-02-09T01:47:47.367Z,-12.41
2023-02-09T01:50:16.269Z,-12.43
2023-02-09T01:52:45.217Z,-12.45
2023-02-09T01:55:15.375Z,-12.47
2023-02-09T01:57:48.369Z,-12.48
2023-02-09T02:00:18.936Z,-12.49
2023-02-09T02:02:56.820Z,-12.49
2023-02-09T02:05:25.620Z,-12.49
2023-02-09T02:08:08.735Z,-12.50
2023-02-09T02:10:36.749Z,-12.50
2023-02-09T02:13:04.836Z,-12.50
2023-02-09T02:16:07.370Z,-12.51
2023-02-09T02:18:48.275Z,-12.52
2023-02-09T02:21:36.651Z,-12.54
2023-02-09T02:24:35.376Z,-12.56
2023-02-09T02:27:13.983Z,-12.58
2023-02-09T02:30:06.767Z,-12.61
2023-02-09T02:32:47.141Z,-12.63
2023-02-09T02:35:38.191Z,-12.65
2023-02-09T02:38:33.342Z,-12.68
2023-02-09T02:41:14.852Z,-12.68
2023-02-09T02:43:55.350Z,-12.70
2023-02-09T02:46:28.370Z,-12.72
2023-02-09T02:49:08.666Z,-12.74
2023-02-09T02:51:39.811Z,-12.77
2023-02-09T02:54:19.996Z,-12.78
2023-02-09T02:56:51.357Z,-12.79
2023-02-09T02:59:22.661Z,-12.80
2023-02-09T03:01:57.767Z,-12.82
2023-02-09T03:04:27.419Z,-12.85
2023-02-09T03:06:56.332Z,-12.87
2023-02-09T03:09:25.298Z,-12.88
2023-02-09T03:12:33.659Z,-12.89
2023-02-09T03:15:05.479Z,-12.92
2023-02-09T03:18:04.673Z,-12.94
2023-02-09T03:20:44.356Z,-12.96
2023-02-09T03:23:31.171Z,-12.97
2023-02-09T03:26:04.060Z,-13.00
2023-02-09T03:28:35.558Z,-13.03
2023-02-09T03:31:04.609Z,-13.05
2023-02-09T03:33:34.640Z,-13.06
2023-02-09T03:36:03.641Z,-13.08
2023-02-09T03:38:32.427Z,-13.09
2023-02-09T03:41:01.162Z,-13.12
2023-02-09T03:43:48.387Z,-13.12
2023-02-09T03:46:17.071Z,-13.13
2023-02-09T03:48:45.773Z,-13.13
2023-02-09T03:51:14.332Z,-13.12
2023-02-09T03:53:42.956Z,-13.11
2023-02-09T03:56:11.932Z,-13.11
2023-02-09T03:58:40.769Z,-13.10
2023-02-09T04:01:10.675Z,-13.09
2023-02-09T04:03:40.261Z,-13.09
2023-02-09T04:06:10.272Z,-13.08
2023-02-09T04:08:39.057Z,-13.08
2023-02-09T04:11:10.328Z,-13.07
2023-02-09T04:13:40.028Z,-13.08
2023-02-09T04:16:09.187Z,-13.08
2023-02-09T04:18:38.480Z,-13.10
2023-02-09T04:21:07.548Z,-13.12
2023-02-09T04:23:36.838Z,-13.13
2023-02-09T04:26:05.415Z,-13.14
2023-02-09T04:28:34.244Z,-13.17
2023-02-09T04:31:03.118Z,-13.18
2023-02-09T04:33:33.064Z,-13.18
2023-02-09T04:36:01.876Z,-13.18
2023-02-09T04:38:30.905Z,-13.18
2023-02-09T04:41:00.399Z,-13.17
2023-02-09T04:43:29.461Z,-13.16
2023-02-09T04:45:58.408Z,-13.16
2023-02-09T04:48:27.935Z,-13.17
2023-02-09T04:50:56.793Z,-13.20
2023-02-09T04:53:25.902Z,-13.25
2023-02-09T04:55:54.533Z,-13.28
2023-02-09T04:58:42.933Z,-13.30
2023-02-09T05:01:13.123Z,-13.32
2023-02-09T05:03:43.048Z,-13.35
2023-02-09T05:06:11.638Z,-13.37
2023-02-09T05:08:40.295Z,-13.38
2023-02-09T05:11:09.297Z,-13.39
2023-02-09T05:13:38.466Z,-13.39
2023-02-09T05:16:08.470Z,-13.38
2023-02-09T05:18:37.409Z,-13.38
2023-02-09T05:21:06.066Z,-13.35
2023-02-09T05:23:35.920Z,-13.33
2023-02-09T05:26:04.714Z,-13.30
2023-02-09T05:28:33.470Z,-13.28
2023-02-09T05:31:02.562Z,-13.26
2023-02-09T05:33:31.041Z,-13.23
2023-02-09T05:35:59.663Z,-13.17
2023-02-09T05:38:28.275Z,-13.14
2023-02-09T05:40:56.937Z,-13.10
2023-02-09T05:43:25.418Z,-13.06
2023-02-09T05:45:54.559Z,-13.01
2023-02-09T05:48:23.313Z,-12.98
2023-02-09T05:50:52.210Z,-12.96
2023-02-09T05:53:20.944Z,-12.94
2023-02-09T05:55:51.166Z,-12.87
2023-02-09T05:58:20.452Z,-12.79
2023-02-09T06:00:50.185Z,-12.74
2023-02-09T06:03:19.058Z,-12.69
2023-02-09T06:05:48.483Z,-12.64
2023-02-09T06:08:17.747Z,-12.58
2023-02-09T06:10:48.513Z,-12.52
2023-02-09T06:13:17.648Z,-12.45
2023-02-09T06:15:46.276Z,-12.38
2023-02-09T06:18:15.065Z,-12.33
2023-02-09T06:20:44.427Z,-12.29
2023-02-09T06:23:14.496Z,-12.24
2023-02-09T06:25:43.458Z,-12.19
2023-02-09T06:28:15.421Z,-12.14
2023-02-09T06:30:50.111Z,-12.08
2023-02-09T06:33:22.884Z,-12.01
2023-02-09T06:35:57.224Z,-11.92
2023-02-09T06:38:26.783Z,-11.85
2023-02-09T06:40:55.799Z,-11.78
2023-02-09T06:43:25.679Z,-11.66
2023-02-09T06:45:57.922Z,-11.54
2023-02-09T06:48:26.737Z,-11.42
2023-02-09T06:50:56.007Z,-11.28
2023-02-09T06:53:24.668Z,-11.17
2023-02-09T06:55:53.329Z,-11.04
2023-02-09T06:58:23.610Z,-10.92
2023-02-09T07:00:52.238Z,-10.82
2023-02-09T07:03:21.242Z,-10.72
2023-02-09T07:05:50.085Z,-10.64
2023-02-09T07:08:18.859Z,-10.53
2023-02-09T07:10:48.904Z,-10.41
2023-02-09T07:13:17.761Z,-10.31
2023-02-09T07:15:55.066Z,-10.23
2023-02-09T07:18:24.758Z,-10.23
2023-02-09T07:20:55.421Z,-10.22
2023-02-09T07:23:24.430Z,-10.17
2023-02-09T07:25:53.518Z,-10.12
2023-02-09T07:28:22.346Z,-10.08
2023-02-09T07:30:52.738Z,-10.00
2023-02-09T07:33:21.800Z,-9.89
2023-02-09T07:35:50.435Z,-9.73
2023-02-09T07:38:23.799Z,-9.53
2023-02-09T07:40:52.360Z,-9.34
2023-02-09T07:43:21.341Z,-9.16
2023-02-09T07:45:49.950Z,-8.95
2023-02-09T07:48:18.637Z,-8.74
2023-02-09T07:50:50.935Z,-8.57
2023-02-09T07:53:20.948Z,-8.45
2023-02-09T07:55:50.050Z,-8.38
2023-02-09T07:58:20.277Z,-8.20
2023-02-09T08:00:49.941Z,-7.98
2023-02-09T08:03:20.075Z,-7.83
2023-02-09T08:05:56.294Z,-7.71
2023-02-09T08:08:26.181Z,-7.55
2023-02-09T08:10:55.078Z,-7.47
2023-02-09T08:13:24.488Z,-7.34
2023-02-09T08:15:59.010Z,-7.16
2023-02-09T08:18:40.107Z,-6.94
2023-02-09T08:21:10.433Z,-6.57
2023-02-09T08:23:40.460Z,-6.13
2023-02-09T08:26:12.104Z,-5.93
2023-02-09T08:28:45.676Z,-5.83
2023-02-09T08:31:16.179Z,-5.75
2023-02-09T08:33:48.096Z,-5.68
2023-02-09T08:36:17.461Z,-5.63
2023-02-09T08:38:46.061Z,-5.45
2023-02-09T08:41:15.788Z,-5.24
2023-02-09T08:43:49.639Z,-4.96
2023-02-09T08:46:19.550Z,-4.72
2023-02-09T08:48:49.441Z,-4.74
2023-02-09T08:51:18.529Z,-4.77
2023-02-09T08:53:52.673Z,-4.70
2023-02-09T08:56:22.242Z,-4.53
2023-02-09T08:58:51.870Z,-4.45
2023-02-09T09:01:21.480Z,-4.44
2023-02-09T09:03:50.538Z,-4.36
2023-02-09T09:06:19.548Z,-4.16
2023-02-09T09:08:48.197Z,-3.95
2023-02-09T09:11:17.565Z,-3.90
2023-02-09T09:13:46.783Z,-3.73
2023-02-09T09:16:18.445Z,-3.36
2023-02-09T09:18:48.055Z,-2.93
2023-02-09T09:21:18.134Z,-2.58
2023-02-09T09:23:47.158Z,-2.37
2023-02-09T09:26:16.743Z,-2.27
2023-02-09T09:28:45.217Z,-2.42
2023-02-09T09:31:16.792Z,-2.57
2023-02-09T09:33:45.914Z,-2.53
2023-02-09T09:36:15.068Z,-2.47
2023-02-09T09:38:43.985Z,-2.55
2023-02-09T09:41:25.122Z,-2.58
2023-02-09T09:43:54.029Z,-2.37
2023-02-09T09:46:33.926Z,-2.15
2023-02-09T09:49:02.590Z,-2.07
2023-02-09T09:51:45.440Z,-1.90
2023-02-09T09:54:22.538Z,-1.60
2023-02-09T09:56:52.978Z,-1.36
2023-02-09T09:59:25.844Z,-1.24
2023-02-09T10:01:54.763Z,-1.20
2023-02-09T10:04:23.996Z,-1.28
2023-02-09T10:07:02.306Z,-1.15
2023-02-09T10:09:51.281Z,-1.20
2023-02-09T10:12:25.501Z,-1.33
2023-02-09T10:14:54.821Z,-1.06
2023-02-09T10:17:24.446Z,-0.91
2023-02-09T10:20:08.879Z,-0.89
2023-02-09T10:22:38.909Z,-0.88
2023-02-09T10:25:53.410Z,-0.61
2023-02-09T10:28:25.420Z,-0.33
2023-02-09T10:30:58.906Z,-0.19
2023-02-09T10:33:29.980Z,-0.09
2023-02-09T10:36:51.423Z,-0.04
2023-02-09T10:39:23.464Z,0.07
2023-02-09T10:41:54.566Z,-0.16
2023-02-09T10:44:29.569Z,-0.50
2023-02-09T10:47:25.780Z,-0.72
2023-02-09T10:50:02.935Z,-0.71
2023-02-09T10:52:37.647Z,-0.74
2023-02-09T10:55:17.850Z,-0.78
2023-02-09T10:57:48.188Z,-0.80
2023-02-09T11:00:18.193Z,-0.97
2023-02-09T11:02:57.273Z,-1.16
2023-02-09T11:05:29.572Z,-1.34
2023-02-09T11:08:13.695Z,-1.54
2023-02-09T11:10:50.398Z,-1.56
2023-02-09T11:13:25.885Z,-1.51
2023-02-09T11:16:15.885Z,-1.52
2023-02-09T11:18:49.978Z,-1.34
2023-02-09T11:21:33.047Z,-0.92
2023-02-09T11:24:26.330Z,-0.48
2023-02-09T11:26:58.907Z,-0.11
2023-02-09T11:29:42.102Z,0.14
2023-02-09T11:32:20.978Z,0.47
2023-02-09T11:34:50.122Z,0.74
2023-02-09T11:37:37.434Z,0.72
2023-02-09T11:40:15.797Z,0.79
2023-02-09T11:42:58.238Z,0.95
2023-02-09T11:45:30.388Z,1.12
2023-02-09T11:48:26.341Z,1.28
2023-02-09T11:51:00.858Z,1.46
2023-02-09T11:53:41.919Z,1.55
2023-02-09T11:56:15.380Z,1.62
2023-02-09T11:59:06.386Z,1.58
2023-02-09T12:01:38.781Z,1.49
2023-02-09T12:04:20.075Z,1.51
2023-02-09T12:06:51.399Z,1.31
2023-02-09T12:09:42.328Z,1.02
2023-02-09T12:12:20.208Z,0.91
2023-02-09T12:15:01.413Z,0.80
2023-02-09T12:17:51.925Z,0.93
2023-02-09T12:20:36.678Z,1.19
2023-02-09T12:23:15.017Z,1.45
2023-02-09T12:25:51.510Z,1.55
2023-02-09T12:28:29.863Z,1.51
2023-02-09T12:30:58.756Z,1.51
2023-02-09T12:33:30.108Z,1.53
2023-02-09T12:36:10.380Z,1.54
2023-02-09T12:38:56.821Z,1.29
2023-02-09T12:41:34.164Z,1.02
2023-02-09T12:44:12.156Z,1.09
2023-02-09T12:46:53.124Z,1.26
2023-02-09T12:49:28.654Z,1.48
2023-02-09T12:52:00.602Z,1.68
2023-02-09T12:54:41.639Z,1.88
2023-02-09T12:57:16.819Z,2.02
2023-02-09T12:59:55.488Z,2.04
2023-02-09T13:02:25.446Z,1.74
2023-02-09T13:04:56.739Z,1.37
2023-02-09T13:07:54.612Z,1.10
2023-02-09T13:10:38.248Z,1.14
2023-02-09T13:13:06.810Z,1.15
2023-02-09T13:15:48.105Z,1.08
2023-02-09T13:18:20.419Z,1.11
2023-02-09T13:21:04.660Z,1.18
2023-02-09T13:23:49.374Z,1.29
2023-02-09T13:26:19.460Z,1.35
2023-02-09T13:28:47.899Z,1.22
2023-02-09T13:31:30.617Z,1.11
2023-02-09T13:34:02.631Z,1.09
2023-02-09T13:36:42.831Z,1.21
2023-02-09T13:39:21.443Z,1.28
2023-02-09T13:41:53.912Z,1.16
2023-02-09T13:44:27.937Z,0.89
2023-02-09T13:47:01.307Z,0.82
2023-02-09T13:49:30.173Z,0.68
2023-02-09T13:52:16.134Z,0.65
2023-02-09T13:54:45.414Z,0.55
2023-02-09T13:57:17.093Z,0.39
2023-02-09T13:59:45.831Z,0.25
2023-02-09T14:02:23.031Z,0.15
2023-02-09T14:04:55.013Z,-0.04
2023-02-09T14:07:24.975Z,-0.30
2023-02-09T14:10:01.701Z,-0.44
2023-02-09T14:12:52.180Z,-0.54
2023-02-09T14:15:42.952Z,-0.65
2023-02-09T14:18:24.713Z,-0.88
2023-02-09T14:21:03.390Z,-1.08
2023-02-09T14:23:35.442Z,-1.21
2023-02-09T14:26:15.498Z,-1.45
2023-02-09T14:29:05.662Z,-1.68
2023-02-09T14:31:34.668Z,-1.80
2023-02-09T14:34:03.230Z,-1.93
2023-02-09T14:36:33.775Z,-2.12
2023-02-09T14:39:22.024Z,-2.24
2023-02-09T14:42:10.883Z,-2.34
2023-02-09T14:44:51.584Z,-2.40
2023-02-09T14:47:31.022Z,-2.46
2023-02-09T14:49:59.889Z,-2.61
2023-02-09T14:52:31.595Z,-2.81
2023-02-09T14:55:04.825Z,-2.97
2023-02-09T14:57:36.339Z,-3.10
2023-02-09T15:00:15.631Z,-3.17
2023-02-09T15:02:44.850Z,-3.20
2023-02-09T15:05:14.028Z,-3.19
2023-02-09T15:07:50.574Z,-3.17
2023-02-09T15:10:28.914Z,-3.18
2023-02-09T15:12:58.629Z,-3.20
2023-02-09T15:15:27.519Z,-3.20
2023-02-09T15:17:58.605Z,-3.21
2023-02-09T15:20:28.749Z,-3.24
2023-02-09T15:22:57.263Z,-3.22
2023-02-09T15:25:26.174Z,-3.21
2023-02-09T15:27:59.257Z,-3.23
2023-02-09T15:30:32.288Z,-3.24
2023-02-09T15:33:01.298Z,-3.24
2023-02-09T15:35:30.031Z,-3.24
2023-02-09T15:37:59.822Z,-3.25
2023-02-09T15:40:49.795Z,-3.29
2023-02-09T15:43:39.279Z,-3.27
2023-02-09T15:46:13.590Z,-3.26
2023-02-09T15:48:42.569Z,-3.26
2023-02-09T15:51:11.228Z,-3.25
2023-02-09T15:53:40.286Z,-3.21
2023-02-09T15:56:09.456Z,-3.20
2023-02-09T15:58:45.148Z,-3.20
2023-02-09T16:01:16.906Z,-3.23
2023-02-09T16:03:45.870Z,-3.28
2023-02-09T16:06:24.975Z,-3.35
2023-02-09T16:08:53.960Z,-3.44
2023-02-09T16:11:27.417Z,-3.52
2023-02-09T16:13:56.190Z,-3.53
2023-02-09T16:16:27.945Z,-3.56
2023-02-09T16:18:56.533Z,-3.59
2023-02-09T16:21:28.452Z,-3.60
2023-02-09T16:23:59.276Z,-3.61
2023-02-09T16:26:28.674Z,-3.66
2023-02-09T16:28:57.412Z,-3.68
2023-02-09T16:31:26.494Z,-3.69
2023-02-09T16:33:55.792Z,-3.67
2023-02-09T16:36:25.187Z,-3.65
2023-02-09T16:38:54.814Z,-3.64
2023-02-09T16:41:42.733Z,-3.64
2023-02-09T16:44:20.266Z,-3.65
2023-02-09T16:46:51.084Z,-3.65
2023-02-09T16:49:40.452Z,-3.66
2023-02-09T16:52:22.047Z,-3.67
2023-02-09T16:54:53.548Z,-3.68
2023-02-09T16:57:23.600Z,-3.70
2023-02-09T16:59:52.798Z,-3.73
2023-02-09T17:02:37.078Z,-3.76
2023-02-09T17:05:22.109Z,-3.77
2023-02-09T17:07:55.163Z,-3.77
2023-02-09T17:10:26.492Z,-3.74
2023-02-09T17:12:55.108Z,-3.70
2023-02-09T17:15:30.454Z,-3.69
2023-02-09T17:18:02.707Z,-3.70
2023-02-09T17:20:37.585Z,-3.69
2023-02-09T17:23:06.170Z,-3.72
2023-02-09T17:25:36.404Z,-3.75
2023-02-09T17:28:05.879Z,-3.75
2023-02-09T17:30:36.616Z,-3.74
2023-02-09T17:33:07.605Z,-3.74
2023-02-09T17:38:31.514Z,-3.68
2023-02-09T17:41:02.637Z,-3.66
2023-02-09T17:43:31.922Z,-3.64
2023-02-09T17:46:01.393Z,-3.62
2023-02-09T17:48:30.424Z,-3.62
2023-02-09T17:51:00.776Z,-3.65
2023-02-09T17:53:32.808Z,-3.69
2023-02-09T17:56:02.803Z,-3.74
2023-02-09T17:58:31.739Z,-3.77
2023-02-09T18:01:01.190Z,-3.79
2023-02-09T18:03:30.679Z,-3.79
2023-02-09T18:06:01.957Z,-3.79
2023-02-09T18:08:31.680Z,-3.80
2023-02-09T18:11:01.636Z,-3.78
2023-02-09T18:13:30.637Z,-3.76
2023-02-09T18:16:03.371Z,-3.77
2023-02-09T18:18:33.092Z,-3.79
2023-02-09T18:21:02.111Z,-3.80
2023-02-09T18:23:31.199Z,-3.81
2023-02-09T18:25:59.837Z,-3.82
2023-02-09T18:28:29.022Z,-3.82
2023-02-09T18:30:58.245Z,-3.82
2023-02-09T18:33:27.595Z,-3.81
2023-02-09T18:35:56.348Z,-3.81
2023-02-09T18:38:25.292Z,-3.80
2023-02-09T18:40:54.226Z,-3.81
2023-02-09T18:43:23.855Z,-3.81
2023-02-09T18:45:53.082Z,-3.80
2023-02-09T18:48:22.829Z,-3.80
2023-02-09T18:50:51.734Z,-3.82
2023-02-09T18:53:22.622Z,-3.81
2023-02-09T18:55:52.569Z,-3.79
2023-02-09T18:58:21.446Z,-3.75
2023-02-09T19:00:50.525Z,-3.73
2023-02-09T19:03:20.394Z,-3.72
2023-02-09T19:05:49.444Z,-3.71
2023-02-09T19:08:18.471Z,-3.73
2023-02-09T19:10:47.709Z,-3.75
2023-02-09T19:13:16.609Z,-3.78
2023-02-09T19:15:46.329Z,-3.80
2023-02-09T19:18:20.449Z,-3.82
2023-02-09T19:20:49.490Z,-3.84
2023-02-09T19:23:18.230Z,-3.83
2023-02-09T19:25:47.996Z,-3.83
2023-02-09T19:28:17.109Z,-3.82
2023-02-09T19:30:46.400Z,-3.83
2023-02-09T19:33:15.666Z,-3.82
2023-02-09T19:35:45.623Z,-3.82
2023-02-09T19:38:14.990Z,-3.83
2023-02-09T19:40:44.146Z,-3.86
2023-02-09T19:43:13.562Z,-3.91
2023-02-09T19:45:42.345Z,-3.98
2023-02-09T19:48:11.502Z,-4.03
2023-02-09T19:50:40.274Z,-4.09
2023-02-09T19:53:09.411Z,-4.12
2023-02-09T19:55:39.364Z,-4.15
2023-02-09T19:58:08.496Z,-4.17
2023-02-09T20:00:38.458Z,-4.18
2023-02-09T20:03:07.488Z,-4.19
2023-02-09T20:05:39.900Z,-4.19
2023-02-09T20:08:09.808Z,-4.17
2023-02-09T20:10:39.033Z,-4.15
2023-02-09T20:13:08.728Z,-4.14
2023-02-09T20:15:42.418Z,-4.13
2023-02-09T20:18:13.479Z,-4.12
2023-02-09T20:20:44.889Z,-4.11
2023-02-09T20:23:15.852Z,-4.12
2023-02-09T20:25:44.907Z,-4.14
2023-02-09T20:28:13.752Z,-4.14
2023-02-09T20:30:46.189Z,-4.16
2023-02-09T20:33:17.597Z,-4.19
2023-02-09T20:35:46.413Z,-4.21
2023-02-09T20:38:17.150Z,-4.22
2023-02-09T20:40:46.074Z,-4.24
2023-02-09T20:43:34.181Z,-4.28
2023-02-09T20:46:26.885Z,-4.31
2023-02-09T20:48:55.623Z,-4.35
2023-02-09T20:51:25.797Z,-4.36
2023-02-09T20:53:54.685Z,-4.37
2023-02-09T20:56:24.034Z,-4.40
2023-02-09T20:58:52.999Z,-4.41
2023-02-09T21:01:23.515Z,-4.43
2023-02-09T21:03:56.957Z,-4.43
2023-02-09T21:06:26.726Z,-4.44
2023-02-09T21:08:55.792Z,-4.43
2023-02-09T21:11:29.204Z,-4.42
2023-02-09T21:13:58.789Z,-4.42
2023-02-09T21:16:28.219Z,-4.42
2023-02-09T21:18:57.859Z,-4.43
2023-02-09T21:21:27.643Z,-4.44
2023-02-09T21:23:56.945Z,-4.44
2023-02-09T21:26:25.720Z,-4.46
2023-02-09T21:28:56.370Z,-4.50
2023-02-09T21:31:26.711Z,-4.52
2023-02-09T21:33:56.689Z,-4.57
2023-02-09T21:36:25.722Z,-4.59
2023-02-09T21:38:55.185Z,-4.59
2023-02-09T21:41:43.817Z,-4.60
2023-02-09T21:44:14.104Z,-4.61
2023-02-09T21:46:43.005Z,-4.61
2023-02-09T21:49:12.868Z,-4.63
2023-02-09T21:51:42.430Z,-4.63
2023-02-09T21:54:15.441Z,-4.65
2023-02-09T21:56:44.745Z,-4.65
2023-02-09T21:59:13.381Z,-4.68
2023-02-09T22:01:43.415Z,-4.73
2023-02-09T22:04:11.898Z,-4.74
2023-02-09T22:06:41.982Z,-4.76
2023-02-09T22:09:10.765Z,-4.75
2023-02-09T22:11:40.465Z,-4.74
2023-02-09T22:14:09.489Z,-4.73
2023-02-09T22:16:38.358Z,-4.73
2023-02-09T22:19:07.489Z,-4.71
2023-02-09T22:21:36.327Z,-4.68
2023-02-09T22:24:05.477Z,-4.68
2023-02-09T22:26:35.276Z,-4.67
2023-02-09T22:29:03.974Z,-4.68
2023-02-09T22:31:32.874Z,-4.71
2023-02-09T22:34:01.852Z,-4.73
2023-02-09T22:36:31.079Z,-4.74
2023-02-09T22:39:01.662Z,-4.74
2023-02-09T22:41:30.700Z,-4.74
2023-02-09T22:44:01.922Z,-4.74
2023-02-09T22:46:32.920Z,-4.74
2023-02-09T22:49:05.800Z,-4.75
2023-02-09T22:51:35.035Z,-4.76
2023-02-09T22:54:04.443Z,-4.76
2023-02-09T22:56:33.558Z,-4.76
2023-02-09T22:59:02.428Z,-4.77
2023-02-09T23:01:31.262Z,-4.79
2023-02-09T23:04:00.317Z,-4.82
2023-02-09T23:06:30.008Z,-4.85
2023-02-09T23:09:00.951Z,-4.88
2023-02-09T23:11:30.333Z,-4.89
2023-02-09T23:14:14.539Z,-4.90
2023-02-09T23:16:45.314Z,-4.91
2023-02-09T23:19:19.540Z,-4.89
2023-02-09T23:21:49.425Z,-4.88
2023-02-09T23:24:21.862Z,-4.87
2023-02-09T23:26:51.132Z,-4.86
2023-02-09T23:29:19.685Z,-4.87
2023-02-09T23:31:48.517Z,-4.88
2023-02-09T23:34:18.915Z,-4.90
2023-02-09T23:36:47.601Z,-4.90
2023-02-09T23:39:18.972Z,-4.87
2023-02-09T23:41:48.123Z,-4.85
2023-02-09T23:44:16.665Z,-4.84
2023-02-09T23:46:45.657Z,-4.88
2023-02-09T23:49:14.538Z,-4.90
2023-02-09T23:51:44.314Z,-4.90
2023-02-09T23:54:12.740Z,-4.91
2023-02-09T23:56:46.471Z,-4.92
2023-02-09T23:59:15.590Z,-4.92
